sensor_id;sensor_type;location;lat;lon;timestamp;pressure;altitude;pressure_sealevel;temperature;humidity
77303;BME280;66363;49.828;7.856;2023-04-29T00:02:20;99867.81;;;11.06;94.03
77303;BME280;66363;49.828;7.856;2023-04-29T00:04:47;99866.81;;;10.96;94.02
77303;BME280;66363;49.828;7.856;2023-04-29T00:07:13;99865.34;;;10.92;93.57
77303;BME280;66363;49.828;7.856;2023-04-29T00:09:38;99870.66;;;10.92;93.02
77303;BME280;66363;49.828;7.856;2023-04-29T00:12:04;99881.53;;;11.00;93.67
77303;BME280;66363;49.828;7.856;2023-04-29T00:14:30;99879.72;;;11.01;93.56
77303;BME280;66363;49.828;7.856;2023-04-29T00:16:55;99874.03;;;10.94;93.70
77303;BME280;66363;49.828;7.856;2023-04-29T00:19:21;99885.38;;;10.96;93.76
77303;BME280;66363;49.828;7.856;2023-04-29T00:21:48;99878.03;;;10.88;94.12
77303;BME280;66363;49.828;7.856;2023-04-29T00:24:14;99883.22;;;10.90;93.42
77303;BME280;66363;49.828;7.856;2023-04-29T00:26:39;99869.91;;;10.79;93.23
77303;BME280;66363;49.828;7.856;2023-04-29T00:29:05;99883.75;;;10.71;93.97
77303;BME280;66363;49.828;7.856;2023-04-29T00:31:30;99879.47;;;10.58;93.98
77303;BME280;66363;49.828;7.856;2023-04-29T00:33:56;99886.19;;;10.50;93.88
77303;BME280;66363;49.828;7.856;2023-04-29T00:36:22;99883.53;;;10.50;94.43
77303;BME280;66363;49.828;7.856;2023-04-29T00:38:49;99881.97;;;10.48;93.29
77303;BME280;66363;49.828;7.856;2023-04-29T00:41:14;99888.22;;;10.47;93.45
77303;BME280;66363;49.828;7.856;2023-04-29T00:43:40;99884.50;;;10.49;93.25
77303;BME280;66363;49.828;7.856;2023-04-29T00:46:06;99880.78;;;10.52;92.68
77303;BME280;66363;49.828;7.856;2023-04-29T00:48:31;99883.75;;;10.47;92.32
77303;BME280;66363;49.828;7.856;2023-04-29T00:50:57;99875.66;;;10.38;91.99
77303;BME280;66363;49.828;7.856;2023-04-29T00:53:23;99880.38;;;10.45;91.89
77303;BME280;66363;49.828;7.856;2023-04-29T00:55:50;99886.19;;;10.50;90.56
77303;BME280;66363;49.828;7.856;2023-04-29T00:58:16;99882.56;;;10.51;92.82
77303;BME280;66363;49.828;7.856;2023-04-29T01:00:42;99881.00;;;10.49;92.54
77303;BME280;66363;49.828;7.856;2023-04-29T01:03:08;99883.66;;;10.49;91.60
77303;BME280;66363;49.828;7.856;2023-04-29T01:05:34;99882.19;;;10.45;92.36
77303;BME280;66363;49.828;7.856;2023-04-29T01:08:12;99889.50;;;10.41;92.58
77303;BME280;66363;49.828;7.856;2023-04-29T01:10:44;99889.03;;;10.36;92.37
77303;BME280;66363;49.828;7.856;2023-04-29T01:13:17;99883.09;;;10.33;92.36
77303;BME280;66363;49.828;7.856;2023-04-29T01:15:46;99891.38;;;10.28;92.26
77303;BME280;66363;49.828;7.856;2023-04-29T01:18:19;99888.63;;;10.17;92.28
77303;BME280;66363;49.828;7.856;2023-04-29T01:20:46;99884.53;;;10.13;92.47
77303;BME280;66363;49.828;7.856;2023-04-29T01:23:12;99887.19;;;10.13;92.30
77303;BME280;66363;49.828;7.856;2023-04-29T01:25:39;99891.38;;;10.15;91.67
77303;BME280;66363;49.828;7.856;2023-04-29T01:28:13;99887.59;;;10.19;91.61
77303;BME280;66363;49.828;7.856;2023-04-29T01:30:49;99885.22;;;10.15;91.34
77303;BME280;66363;49.828;7.856;2023-04-29T01:33:22;99883.78;;;10.11;91.64
77303;BME280;66363;49.828;7.856;2023-04-29T01:36:01;99886.88;;;10.05;91.64
77303;BME280;66363;49.828;7.856;2023-04-29T01:38:35;99886.44;;;10.11;91.31
77303;BME280;66363;49.828;7.856;2023-04-29T01:41:09;99884.97;;;10.07;91.16
77303;BME280;66363;49.828;7.856;2023-04-29T01:43:38;99891.88;;;9.97;91.94
77303;BME280;66363;49.828;7.856;2023-04-29T01:46:05;99885.72;;;9.96;91.69
77303;BME280;66363;49.828;7.856;2023-04-29T01:48:33;99886.78;;;10.06;90.69
77303;BME280;66363;49.828;7.856;2023-04-29T01:50:59;99892.13;;;10.17;90.31
77303;BME280;66363;49.828;7.856;2023-04-29T01:53:24;99887.59;;;10.19;90.01
77303;BME280;66363;49.828;7.856;2023-04-29T01:55:50;99895.44;;;10.21;90.15
77303;BME280;66363;49.828;7.856;2023-04-29T01:58:17;99892.34;;;10.27;90.05
77303;BME280;66363;49.828;7.856;2023-04-29T02:00:43;99896.69;;;10.28;90.23
77303;BME280;66363;49.828;7.856;2023-04-29T02:03:08;99897.53;;;10.29;90.57
77303;BME280;66363;49.828;7.856;2023-04-29T02:05:34;99893.06;;;10.29;89.86
77303;BME280;66363;49.828;7.856;2023-04-29T02:08:00;99895.28;;;10.35;89.31
77303;BME280;66363;49.828;7.856;2023-04-29T02:10:26;99898.94;;;10.45;88.61
77303;BME280;66363;49.828;7.856;2023-04-29T02:12:52;99892.22;;;10.52;87.68
77303;BME280;66363;49.828;7.856;2023-04-29T02:15:19;99900.81;;;10.56;88.11
77303;BME280;66363;49.828;7.856;2023-04-29T02:17:45;99902.34;;;10.47;88.49
77303;BME280;66363;49.828;7.856;2023-04-29T02:20:11;99899.91;;;10.44;89.02
77303;BME280;66363;49.828;7.856;2023-04-29T02:22:37;99905.16;;;10.33;89.34
77303;BME280;66363;49.828;7.856;2023-04-29T02:25:03;99902.00;;;10.28;89.37
77303;BME280;66363;49.828;7.856;2023-04-29T02:27:28;99900.06;;;10.30;89.00
77303;BME280;66363;49.828;7.856;2023-04-29T02:29:54;99908.38;;;10.26;89.54
77303;BME280;66363;49.828;7.856;2023-04-29T02:32:21;99917.06;;;10.28;88.95
77303;BME280;66363;49.828;7.856;2023-04-29T02:34:47;99907.94;;;10.19;88.87
77303;BME280;66363;49.828;7.856;2023-04-29T02:37:12;99924.50;;;10.10;89.79
77303;BME280;66363;49.828;7.856;2023-04-29T02:39:38;99913.28;;;10.06;89.55
77303;BME280;66363;49.828;7.856;2023-04-29T02:42:04;99907.97;;;10.06;89.71
77303;BME280;66363;49.828;7.856;2023-04-29T02:44:30;99914.97;;;10.07;89.76
77303;BME280;66363;49.828;7.856;2023-04-29T02:46:55;99914.97;;;10.07;89.93
77303;BME280;66363;49.828;7.856;2023-04-29T02:49:22;99906.38;;;10.04;89.77
77303;BME280;66363;49.828;7.856;2023-04-29T02:51:48;99911.47;;;10.07;90.29
77303;BME280;66363;49.828;7.856;2023-04-29T02:54:14;99914.13;;;10.07;89.84
77303;BME280;66363;49.828;7.856;2023-04-29T02:56:39;99921.66;;;10.13;89.83
77303;BME280;66363;49.828;7.856;2023-04-29T02:59:05;99918.69;;;10.05;90.61
77303;BME280;66363;49.828;7.856;2023-04-29T03:01:31;99916.66;;;10.08;89.93
77303;BME280;66363;49.828;7.856;2023-04-29T03:03:56;99915.97;;;10.17;89.39
77303;BME280;66363;49.828;7.856;2023-04-29T03:06:23;99915.47;;;10.25;88.72
77303;BME280;66363;49.828;7.856;2023-04-29T03:08:49;99919.38;;;10.32;88.42
77303;BME280;66363;49.828;7.856;2023-04-29T03:11:15;99923.63;;;10.35;88.06
77303;BME280;66363;49.828;7.856;2023-04-29T03:13:40;99918.81;;;10.40;87.97
77303;BME280;66363;49.828;7.856;2023-04-29T03:16:06;99929.13;;;10.32;88.17
77303;BME280;66363;49.828;7.856;2023-04-29T03:18:32;99922.78;;;10.34;88.69
77303;BME280;66363;49.828;7.856;2023-04-29T03:20:58;99925.94;;;10.39;88.54
77303;BME280;66363;49.828;7.856;2023-04-29T03:23:25;99927.16;;;10.46;87.82
77303;BME280;66363;49.828;7.856;2023-04-29T03:25:50;99933.06;;;10.39;87.68
77303;BME280;66363;49.828;7.856;2023-04-29T03:28:16;99924.34;;;10.37;88.52
77303;BME280;66363;49.828;7.856;2023-04-29T03:30:41;99932.69;;;10.43;88.18
77303;BME280;66363;49.828;7.856;2023-04-29T03:33:07;99929.72;;;10.48;87.45
77303;BME280;66363;49.828;7.856;2023-04-29T03:35:33;99930.41;;;10.63;87.20
77303;BME280;66363;49.828;7.856;2023-04-29T03:37:58;99925.47;;;10.69;86.36
77303;BME280;66363;49.828;7.856;2023-04-29T03:40:25;99931.41;;;10.73;86.78
77303;BME280;66363;49.828;7.856;2023-04-29T03:42:51;99936.31;;;10.66;86.69
77303;BME280;66363;49.828;7.856;2023-04-29T03:45:17;99928.09;;;10.58;86.85
77303;BME280;66363;49.828;7.856;2023-04-29T03:47:43;99937.97;;;10.56;86.85
77303;BME280;66363;49.828;7.856;2023-04-29T03:50:09;99948.78;;;10.53;87.09
77303;BME280;66363;49.828;7.856;2023-04-29T03:52:35;99953.13;;;10.54;86.91
77303;BME280;66363;49.828;7.856;2023-04-29T03:55:01;99947.94;;;10.52;88.09
77303;BME280;66363;49.828;7.856;2023-04-29T03:57:28;99950.59;;;10.52;87.44
77303;BME280;66363;49.828;7.856;2023-04-29T03:59:53;99946.88;;;10.55;87.27
77303;BME280;66363;49.828;7.856;2023-04-29T04:02:19;99955.56;;;10.57;87.51
77303;BME280;66363;49.828;7.856;2023-04-29T04:04:45;99953.66;;;10.59;87.13
77303;BME280;66363;49.828;7.856;2023-04-29T04:07:10;99957.53;;;10.66;87.38
77303;BME280;66363;49.828;7.856;2023-04-29T04:09:36;99955.91;;;10.76;87.42
77303;BME280;66363;49.828;7.856;2023-04-29T04:12:02;99963.53;;;10.81;87.09
77303;BME280;66363;49.828;7.856;2023-04-29T04:14:29;99967.53;;;10.86;86.84
77303;BME280;66363;49.828;7.856;2023-04-29T04:16:55;99964.78;;;10.88;86.50
77303;BME280;66363;49.828;7.856;2023-04-29T04:19:21;99968.88;;;10.92;86.74
77303;BME280;66363;49.828;7.856;2023-04-29T04:21:46;99970.56;;;10.93;86.65
77303;BME280;66363;49.828;7.856;2023-04-29T04:24:12;99976.63;;;10.95;86.26
77303;BME280;66363;49.828;7.856;2023-04-29T04:26:38;99972.66;;;11.01;86.69
77303;BME280;66363;49.828;7.856;2023-04-29T04:29:03;99978.31;;;10.96;87.08
77303;BME280;66363;49.828;7.856;2023-04-29T04:31:30;99978.09;;;10.99;86.58
77303;BME280;66363;49.828;7.856;2023-04-29T04:33:56;99984.13;;;11.01;86.83
77303;BME280;66363;49.828;7.856;2023-04-29T04:36:22;99982.50;;;11.11;85.80
77303;BME280;66363;49.828;7.856;2023-04-29T04:38:47;99980.56;;;11.13;86.48
77303;BME280;66363;49.828;7.856;2023-04-29T04:41:13;99993.84;;;11.13;86.39
77303;BME280;66363;49.828;7.856;2023-04-29T04:43:39;99995.44;;;11.16;86.29
77303;BME280;66363;49.828;7.856;2023-04-29T04:46:11;99998.34;;;11.24;85.23
77303;BME280;66363;49.828;7.856;2023-04-29T04:48:39;100003.75;;;11.22;85.86
77303;BME280;66363;49.828;7.856;2023-04-29T04:51:08;100002.22;;;11.31;84.80
77303;BME280;66363;49.828;7.856;2023-04-29T04:53:33;100003.19;;;11.30;84.98
77303;BME280;66363;49.828;7.856;2023-04-29T04:56:00;100005.28;;;11.38;85.24
77303;BME280;66363;49.828;7.856;2023-04-29T04:58:25;100011.09;;;11.43;83.92
77303;BME280;66363;49.828;7.856;2023-04-29T05:00:51;100016.25;;;11.44;83.83
77303;BME280;66363;49.828;7.856;2023-04-29T05:03:17;100011.78;;;11.45;84.62
77303;BME280;66363;49.828;7.856;2023-04-29T05:05:44;100024.50;;;11.52;82.89
77303;BME280;66363;49.828;7.856;2023-04-29T05:08:10;100027.66;;;11.57;82.83
77303;BME280;66363;49.828;7.856;2023-04-29T05:10:35;100028.16;;;11.63;83.01
77303;BME280;66363;49.828;7.856;2023-04-29T05:13:01;100022.66;;;11.77;81.11
77303;BME280;66363;49.828;7.856;2023-04-29T05:15:27;100032.94;;;11.81;82.62
77303;BME280;66363;49.828;7.856;2023-04-29T05:17:52;100026.66;;;11.82;81.76
77303;BME280;66363;49.828;7.856;2023-04-29T05:20:18;100033.56;;;11.85;81.62
77303;BME280;66363;49.828;7.856;2023-04-29T05:22:45;100048.31;;;11.89;81.37
77303;BME280;66363;49.828;7.856;2023-04-29T05:25:11;100047.69;;;11.97;79.68
77303;BME280;66363;49.828;7.856;2023-04-29T05:27:36;100053.50;;;12.02;78.62
77303;BME280;66363;49.828;7.856;2023-04-29T05:30:03;100050.66;;;12.16;79.90
77303;BME280;66363;49.828;7.856;2023-04-29T05:32:28;100053.91;;;12.19;80.19
77303;BME280;66363;49.828;7.856;2023-04-29T05:34:54;100057.75;;;12.27;80.00
77303;BME280;66363;49.828;7.856;2023-04-29T05:37:20;100060.44;;;12.27;78.08
77303;BME280;66363;49.828;7.856;2023-04-29T05:39:47;100065.25;;;12.21;79.80
77303;BME280;66363;49.828;7.856;2023-04-29T05:42:12;100059.59;;;12.15;78.65
77303;BME280;66363;49.828;7.856;2023-04-29T05:44:38;100065.88;;;12.14;79.54
77303;BME280;66363;49.828;7.856;2023-04-29T05:47:04;100069.63;;;12.11;77.69
77303;BME280;66363;49.828;7.856;2023-04-29T05:49:29;100073.38;;;12.20;77.87
77303;BME280;66363;49.828;7.856;2023-04-29T05:51:55;100080.63;;;12.29;78.52
77303;BME280;66363;49.828;7.856;2023-04-29T05:54:21;100080.66;;;12.40;77.61
77303;BME280;66363;49.828;7.856;2023-04-29T05:56:48;100080.53;;;12.42;75.52
77303;BME280;66363;49.828;7.856;2023-04-29T05:59:13;100085.50;;;12.46;74.67
77303;BME280;66363;49.828;7.856;2023-04-29T06:01:39;100087.75;;;12.51;74.26
77303;BME280;66363;49.828;7.856;2023-04-29T06:04:05;100087.63;;;12.52;74.53
77303;BME280;66363;49.828;7.856;2023-04-29T06:06:30;100089.69;;;12.60;74.50
77303;BME280;66363;49.828;7.856;2023-04-29T06:08:56;100099.03;;;12.66;73.69
77303;BME280;66363;49.828;7.856;2023-04-29T06:11:22;100101.66;;;12.77;71.72
77303;BME280;66363;49.828;7.856;2023-04-29T06:13:49;100105.16;;;12.77;70.26
77303;BME280;66363;49.828;7.856;2023-04-29T06:16:15;100104.69;;;12.83;70.35
77303;BME280;66363;49.828;7.856;2023-04-29T06:18:40;100105.16;;;12.88;71.09
77303;BME280;66363;49.828;7.856;2023-04-29T06:21:06;100102.03;;;12.95;71.28
77303;BME280;66363;49.828;7.856;2023-04-29T06:23:32;100107.47;;;12.82;71.43
77303;BME280;66363;49.828;7.856;2023-04-29T06:25:57;100107.72;;;12.79;69.98
77303;BME280;66363;49.828;7.856;2023-04-29T06:28:23;100114.97;;;12.77;69.90
77303;BME280;66363;49.828;7.856;2023-04-29T06:30:50;100104.44;;;12.75;69.81
77303;BME280;66363;49.828;7.856;2023-04-29T06:33:16;100121.66;;;12.71;71.26
77303;BME280;66363;49.828;7.856;2023-04-29T06:35:41;100123.47;;;12.71;70.87
77303;BME280;66363;49.828;7.856;2023-04-29T06:38:07;100129.88;;;12.57;71.21
77303;BME280;66363;49.828;7.856;2023-04-29T06:40:32;100133.88;;;12.63;70.89
77303;BME280;66363;49.828;7.856;2023-04-29T06:42:58;100147.66;;;12.68;69.68
77303;BME280;66363;49.828;7.856;2023-04-29T06:45:24;100141.97;;;12.61;69.58
77303;BME280;66363;49.828;7.856;2023-04-29T06:47:51;100145.84;;;12.57;70.54
77303;BME280;66363;49.828;7.856;2023-04-29T06:50:17;100146.81;;;12.67;69.63
77303;BME280;66363;49.828;7.856;2023-04-29T06:52:42;100150.09;;;12.71;69.32
77303;BME280;66363;49.828;7.856;2023-04-29T06:55:08;100148.41;;;12.70;68.88
77303;BME280;66363;49.828;7.856;2023-04-29T06:57:34;100157.94;;;12.50;71.21
77303;BME280;66363;49.828;7.856;2023-04-29T06:59:59;100157.56;;;12.54;69.34
77303;BME280;66363;49.828;7.856;2023-04-29T07:02:25;100158.69;;;12.63;69.70
77303;BME280;66363;49.828;7.856;2023-04-29T07:04:52;100150.94;;;12.71;68.84
77303;BME280;66363;49.828;7.856;2023-04-29T07:07:18;100159.63;;;12.73;69.58
77303;BME280;66363;49.828;7.856;2023-04-29T07:09:43;100164.25;;;12.71;69.31
77303;BME280;66363;49.828;7.856;2023-04-29T07:12:09;100169.19;;;12.76;69.32
77303;BME280;66363;49.828;7.856;2023-04-29T07:14:35;100176.72;;;12.82;67.80
77303;BME280;66363;49.828;7.856;2023-04-29T07:17:00;100181.91;;;12.83;67.37
77303;BME280;66363;49.828;7.856;2023-04-29T07:19:26;100183.50;;;12.86;68.42
77303;BME280;66363;49.828;7.856;2023-04-29T07:21:53;100194.03;;;12.87;67.92
77303;BME280;66363;49.828;7.856;2023-04-29T07:24:18;100192.34;;;12.98;67.38
77303;BME280;66363;49.828;7.856;2023-04-29T07:26:44;100188.31;;;13.03;67.55
77303;BME280;66363;49.828;7.856;2023-04-29T07:29:10;100200.44;;;13.07;66.67
77303;BME280;66363;49.828;7.856;2023-04-29T07:31:35;100206.22;;;13.01;66.15
77303;BME280;66363;49.828;7.856;2023-04-29T07:34:01;100206.22;;;13.01;67.21
77303;BME280;66363;49.828;7.856;2023-04-29T07:36:27;100208.69;;;13.15;65.93
77303;BME280;66363;49.828;7.856;2023-04-29T07:38:54;100203.84;;;13.20;66.27
77303;BME280;66363;49.828;7.856;2023-04-29T07:41:19;100211.22;;;13.28;65.96
77303;BME280;66363;49.828;7.856;2023-04-29T07:43:45;100216.53;;;13.39;66.74
77303;BME280;66363;49.828;7.856;2023-04-29T07:46:11;100210.97;;;13.42;65.82
77303;BME280;66363;49.828;7.856;2023-04-29T07:48:37;100214.81;;;13.49;66.10
77303;BME280;66363;49.828;7.856;2023-04-29T07:51:02;100230.22;;;13.46;65.66
77303;BME280;66363;49.828;7.856;2023-04-29T07:53:28;100223.53;;;13.51;65.66
77303;BME280;66363;49.828;7.856;2023-04-29T07:55:55;100220.59;;;13.66;64.95
77303;BME280;66363;49.828;7.856;2023-04-29T07:58:21;100217.31;;;13.73;64.43
77303;BME280;66363;49.828;7.856;2023-04-29T08:00:46;100214.97;;;13.80;64.75
77303;BME280;66363;49.828;7.856;2023-04-29T08:03:12;100223.53;;;13.95;64.60
77303;BME280;66363;49.828;7.856;2023-04-29T08:05:38;100232.06;;;14.09;64.26
77303;BME280;66363;49.828;7.856;2023-04-29T08:08:04;100234.22;;;14.15;63.63
77303;BME280;66363;49.828;7.856;2023-04-29T08:10:30;100239.44;;;14.17;62.93
77303;BME280;66363;49.828;7.856;2023-04-29T08:12:57;100241.59;;;14.23;62.21
77303;BME280;66363;49.828;7.856;2023-04-29T08:15:22;100246.81;;;14.24;61.83
77303;BME280;66363;49.828;7.856;2023-04-29T08:17:48;100233.09;;;14.29;61.38
77303;BME280;66363;49.828;7.856;2023-04-29T08:20:14;100247.00;;;14.33;62.08
77303;BME280;66363;49.828;7.856;2023-04-29T08:22:40;100249.22;;;14.27;61.17
77303;BME280;66363;49.828;7.856;2023-04-29T08:25:06;100253.19;;;14.33;62.52
77303;BME280;66363;49.828;7.856;2023-04-29T08:27:32;100248.38;;;14.27;60.42
77303;BME280;66363;49.828;7.856;2023-04-29T08:29:59;100249.03;;;14.19;62.50
77303;BME280;66363;49.828;7.856;2023-04-29T08:32:25;100253.47;;;13.98;62.14
77303;BME280;66363;49.828;7.856;2023-04-29T08:34:50;100265.78;;;14.10;62.31
77303;BME280;66363;49.828;7.856;2023-04-29T08:37:16;100250.34;;;13.93;61.64
77303;BME280;66363;49.828;7.856;2023-04-29T08:39:42;100252.69;;;13.75;62.94
77303;BME280;66363;49.828;7.856;2023-04-29T08:42:08;100258.53;;;13.58;63.58
77303;BME280;66363;49.828;7.856;2023-04-29T08:44:34;100260.84;;;13.51;63.22
77303;BME280;66363;49.828;7.856;2023-04-29T08:47:01;100261.25;;;13.47;63.92
77303;BME280;66363;49.828;7.856;2023-04-29T08:49:27;100265.97;;;13.43;64.26
77303;BME280;66363;49.828;7.856;2023-04-29T08:51:53;100266.81;;;13.44;66.06
77303;BME280;66363;49.828;7.856;2023-04-29T08:54:19;100275.91;;;13.41;65.53
77303;BME280;66363;49.828;7.856;2023-04-29T08:56:45;100272.75;;;13.36;65.71
77303;BME280;66363;49.828;7.856;2023-04-29T08:59:11;100285.97;;;13.38;65.55
77303;BME280;66363;49.828;7.856;2023-04-29T09:01:39;100285.72;;;13.41;64.66
77303;BME280;66363;49.828;7.856;2023-04-29T09:04:14;100287.19;;;13.22;64.72
77303;BME280;66363;49.828;7.856;2023-04-29T09:06:46;100287.31;;;13.21;65.46
77303;BME280;66363;49.828;7.856;2023-04-29T09:09:12;100285.72;;;13.18;64.75
77303;BME280;66363;49.828;7.856;2023-04-29T09:11:38;100299.38;;;13.14;65.78
77303;BME280;66363;49.828;7.856;2023-04-29T09:14:04;100292.75;;;13.19;65.36
77303;BME280;66363;49.828;7.856;2023-04-29T09:16:30;100296.16;;;13.21;65.41
77303;BME280;66363;49.828;7.856;2023-04-29T09:18:55;100303.53;;;13.18;65.28
77303;BME280;66363;49.828;7.856;2023-04-29T09:21:24;100300.50;;;13.22;66.03
77303;BME280;66363;49.828;7.856;2023-04-29T09:23:50;100306.63;;;13.12;65.30
77303;BME280;66363;49.828;7.856;2023-04-29T09:26:16;100304.81;;;13.12;66.12
77303;BME280;66363;49.828;7.856;2023-04-29T09:28:42;100310.78;;;13.16;65.68
77303;BME280;66363;49.828;7.856;2023-04-29T09:31:09;100313.94;;;13.21;67.14
77303;BME280;66363;49.828;7.856;2023-04-29T09:33:48;100307.59;;;13.11;66.60
77303;BME280;66363;49.828;7.856;2023-04-29T09:38:58;100316.06;;;13.05;66.80
77303;BME280;66363;49.828;7.856;2023-04-29T09:41:23;100319.22;;;12.99;66.77
77303;BME280;66363;49.828;7.856;2023-04-29T09:44:01;100323.94;;;12.95;67.92
77303;BME280;66363;49.828;7.856;2023-04-29T09:46:27;100326.59;;;13.06;67.36
77303;BME280;66363;49.828;7.856;2023-04-29T09:48:53;100333.88;;;13.04;68.02
77303;BME280;66363;49.828;7.856;2023-04-29T09:51:18;100332.56;;;13.10;67.38
77303;BME280;66363;49.828;7.856;2023-04-29T09:53:44;100335.94;;;13.12;68.02
77303;BME280;66363;49.828;7.856;2023-04-29T09:56:11;100340.19;;;13.14;67.95
77303;BME280;66363;49.828;7.856;2023-04-29T09:58:37;100341.03;;;13.15;67.33
77303;BME280;66363;49.828;7.856;2023-04-29T10:01:03;100341.28;;;13.12;67.83
77303;BME280;66363;49.828;7.856;2023-04-29T10:03:31;100345.38;;;13.05;68.45
77303;BME280;66363;49.828;7.856;2023-04-29T10:05:57;100347.75;;;12.85;70.07
77303;BME280;66363;49.828;7.856;2023-04-29T10:08:25;100348.84;;;12.83;70.47
77303;BME280;66363;49.828;7.856;2023-04-29T10:10:52;100353.41;;;12.70;71.01
77303;BME280;66363;49.828;7.856;2023-04-29T10:13:20;100353.91;;;12.75;69.15
77303;BME280;66363;49.828;7.856;2023-04-29T10:15:51;100359.34;;;12.73;70.27
77303;BME280;66363;49.828;7.856;2023-04-29T10:18:28;100358.63;;;12.71;69.44
77303;BME280;66363;49.828;7.856;2023-04-29T10:20:56;100366.72;;;12.70;69.44
77303;BME280;66363;49.828;7.856;2023-04-29T10:23:24;100358.28;;;12.52;69.16
77303;BME280;66363;49.828;7.856;2023-04-29T10:25:52;100362.53;;;12.54;69.20
77303;BME280;66363;49.828;7.856;2023-04-29T10:28:19;100353.75;;;12.65;68.56
77303;BME280;66363;49.828;7.856;2023-04-29T10:30:50;100360.81;;;12.77;68.44
77303;BME280;66363;49.828;7.856;2023-04-29T10:33:16;100350.66;;;12.82;67.90
77303;BME280;66363;49.828;7.856;2023-04-29T10:35:41;100364.13;;;13.03;67.53
77303;BME280;66363;49.828;7.856;2023-04-29T10:38:12;100359.59;;;13.16;68.78
77303;BME280;66363;49.828;7.856;2023-04-29T10:40:43;100357.66;;;13.30;67.15
77303;BME280;66363;49.828;7.856;2023-04-29T10:43:09;100353.31;;;13.17;66.85
77303;BME280;66363;49.828;7.856;2023-04-29T10:45:37;100358.50;;;13.30;66.71
77303;BME280;66363;49.828;7.856;2023-04-29T10:48:10;100353.09;;;13.43;66.24
77303;BME280;66363;49.828;7.856;2023-04-29T10:50:59;100354.16;;;13.51;65.26
77303;BME280;66363;49.828;7.856;2023-04-29T10:53:26;100342.91;;;13.59;64.26
77303;BME280;66363;49.828;7.856;2023-04-29T10:55:53;100347.63;;;13.55;64.64
77303;BME280;66363;49.828;7.856;2023-04-29T10:58:33;100350.06;;;13.47;63.44
77303;BME280;66363;49.828;7.856;2023-04-29T11:01:01;100357.69;;;13.41;65.41
77303;BME280;66363;49.828;7.856;2023-04-29T11:03:51;100352.84;;;13.57;64.54
77303;BME280;66363;49.828;7.856;2023-04-29T11:06:17;100354.31;;;13.50;63.90
77303;BME280;66363;49.828;7.856;2023-04-29T11:08:43;100357.06;;;13.59;64.67
77303;BME280;66363;49.828;7.856;2023-04-29T11:11:09;100354.41;;;13.59;63.70
77303;BME280;66363;49.828;7.856;2023-04-29T11:13:38;100350.28;;;13.55;63.53
77303;BME280;66363;49.828;7.856;2023-04-29T11:16:05;100351.13;;;13.67;63.45
77303;BME280;66363;49.828;7.856;2023-04-29T11:18:32;100344.34;;;13.74;64.92
77303;BME280;66363;49.828;7.856;2023-04-29T11:21:14;100346.50;;;13.91;61.78
77303;BME280;66363;49.828;7.856;2023-04-29T11:23:40;100348.69;;;13.98;61.43
77303;BME280;66363;49.828;7.856;2023-04-29T11:26:05;100344.41;;;14.06;61.78
77303;BME280;66363;49.828;7.856;2023-04-29T11:28:32;100351.31;;;14.09;62.52
77303;BME280;66363;49.828;7.856;2023-04-29T11:30:58;100350.69;;;14.16;61.75
77303;BME280;66363;49.828;7.856;2023-04-29T11:33:26;100342.91;;;14.24;60.93
77303;BME280;66363;49.828;7.856;2023-04-29T11:35:52;100344.69;;;14.46;61.13
77303;BME280;66363;49.828;7.856;2023-04-29T11:38:23;100349.69;;;14.60;60.08
77303;BME280;66363;49.828;7.856;2023-04-29T11:40:49;100353.19;;;14.72;59.73
77303;BME280;66363;49.828;7.856;2023-04-29T11:43:16;100351.28;;;14.84;59.50
77303;BME280;66363;49.828;7.856;2023-04-29T11:45:43;100353.50;;;14.79;60.14
77303;BME280;66363;49.828;7.856;2023-04-29T11:48:16;100364.00;;;14.71;59.89
77303;BME280;66363;49.828;7.856;2023-04-29T11:50:44;100352.91;;;14.54;60.15
77303;BME280;66363;49.828;7.856;2023-04-29T11:53:10;100352.75;;;14.56;60.27
77303;BME280;66363;49.828;7.856;2023-04-29T11:55:35;100359.63;;;14.70;60.80
77303;BME280;66363;49.828;7.856;2023-04-29T11:58:04;100362.66;;;14.65;60.54
77303;BME280;66363;49.828;7.856;2023-04-29T12:00:30;100364.00;;;14.71;59.15
77303;BME280;66363;49.828;7.856;2023-04-29T12:02:57;100358.25;;;14.75;59.69
77303;BME280;66363;49.828;7.856;2023-04-29T12:05:25;100363.72;;;14.74;59.04
77303;BME280;66363;49.828;7.856;2023-04-29T12:07:53;100367.50;;;14.71;59.11
77303;BME280;66363;49.828;7.856;2023-04-29T12:10:19;100361.06;;;14.74;59.43
77303;BME280;66363;49.828;7.856;2023-04-29T12:12:45;100370.91;;;14.94;57.75
77303;BME280;66363;49.828;7.856;2023-04-29T12:15:11;100366.53;;;15.14;58.06
77303;BME280;66363;49.828;7.856;2023-04-29T12:17:38;100368.81;;;14.98;58.38
77303;BME280;66363;49.828;7.856;2023-04-29T12:20:04;100367.03;;;15.08;57.78
77303;BME280;66363;49.828;7.856;2023-04-29T12:22:31;100368.34;;;15.13;57.57
77303;BME280;66363;49.828;7.856;2023-04-29T12:25:02;100372.72;;;15.14;56.86
77303;BME280;66363;49.828;7.856;2023-04-29T12:27:28;100363.84;;;15.14;57.47
77303;BME280;66363;49.828;7.856;2023-04-29T12:29:55;100369.66;;;15.19;57.17
77303;BME280;66363;49.828;7.856;2023-04-29T12:32:22;100366.91;;;15.30;57.68
77303;BME280;66363;49.828;7.856;2023-04-29T12:34:49;100360.19;;;15.56;56.85
77303;BME280;66363;49.828;7.856;2023-04-29T12:37:15;100356.56;;;15.46;56.69
77303;BME280;66363;49.828;7.856;2023-04-29T12:39:41;100359.50;;;15.64;55.09
77303;BME280;66363;49.828;7.856;2023-04-29T12:42:13;100364.84;;;16.04;56.09
77303;BME280;66363;49.828;7.856;2023-04-29T12:44:39;100367.41;;;16.25;54.01
77303;BME280;66363;49.828;7.856;2023-04-29T12:47:07;100367.63;;;16.72;50.60
77303;BME280;66363;49.828;7.856;2023-04-29T12:49:33;100374.03;;;17.74;50.93
77303;BME280;66363;49.828;7.856;2023-04-29T12:51:58;100368.94;;;20.08;45.01
77303;BME280;66363;49.828;7.856;2023-04-29T12:54:24;100378.44;;;21.75;42.37